sensor_id;sensor_type;location;lat;lon;timestamp;P1;durP1;ratioP1;P2;durP2;ratioP2
6902;SDS011;20232;49.408;8.702;2023-02-05T00:00:01;13.40;;;5.50;;
6902;SDS011;20232;49.408;8.702;2023-02-05T05:02:41;6.33;;;3.83;;
6902;SDS011;20232;49.408;8.702;2023-02-05T05:05:06;7.40;;;4.37;;
6902;SDS011;20232;49.408;8.702;2023-02-05T05:07:32;8.37;;;4.13;;
6902;SDS011;20232;49.408;8.702;2023-02-05T05:09:58;7.17;;;4.40;;
6902;SDS011;20232;49.408;8.702;2023-02-05T05:12:23;6.00;;;4.17;;
6902;SDS011;20232;49.408;8.702;2023-02-05T05:14:49;4.97;;;3.90;;
6902;SDS011;20232;49.408;8.702;2023-02-05T05:17:14;6.00;;;4.00;;
6902;SDS011;20232;49.408;8.702;2023-02-05T05:19:40;5.50;;;4.23;;
6902;SDS011;20232;49.408;8.702;2023-02-05T05:22:05;8.73;;;4.30;;
6902;SDS011;20232;49.408;8.702;2023-02-05T05:24:31;5.87;;;4.30;;
6902;SDS011;20232;49.408;8.702;2023-02-05T05:26:57;7.47;;;4.10;;
6902;SDS011;20232;49.408;8.702;2023-02-05T05:29:23;4.80;;;4.13;;
6902;SDS011;20232;49.408;8.702;2023-02-05T05:31:50;5.70;;;3.90;;
6902;SDS011;20232;49.408;8.702;2023-02-05T05:34:17;4.23;;;3.83;;
6902;SDS011;20232;49.408;8.702;2023-02-05T05:36:42;6.43;;;4.20;;
6902;SDS011;20232;49.408;8.702;2023-02-05T05:39:08;5.33;;;4.03;;
6902;SDS011;20232;49.408;8.702;2023-02-05T05:41:54;5.57;;;4.00;;
6902;SDS011;20232;49.408;8.702;2023-02-05T05:44:38;4.57;;;3.97;;
6902;SDS011;20232;49.408;8.702;2023-02-05T05:47:04;4.50;;;4.10;;
6902;SDS011;20232;49.408;8.702;2023-02-05T05:49:29;4.63;;;3.60;;
6902;SDS011;20232;49.408;8.702;2023-02-05T05:51:55;5.40;;;4.10;;
6902;SDS011;20232;49.408;8.702;2023-02-05T05:54:20;7.20;;;4.27;;
6902;SDS011;20232;49.408;8.702;2023-02-05T05:56:46;7.10;;;4.30;;
6902;SDS011;20232;49.408;8.702;2023-02-05T05:59:13;7.77;;;3.57;;
6902;SDS011;20232;49.408;8.702;2023-02-05T06:01:39;5.83;;;3.83;;
6902;SDS011;20232;49.408;8.702;2023-02-05T06:04:05;6.27;;;3.90;;
6902;SDS011;20232;49.408;8.702;2023-02-05T06:06:30;5.33;;;4.00;;
6902;SDS011;20232;49.408;8.702;2023-02-05T06:08:56;4.93;;;3.87;;
6902;SDS011;20232;49.408;8.702;2023-02-05T06:11:22;6.63;;;4.20;;
6902;SDS011;20232;49.408;8.702;2023-02-05T06:13:47;5.27;;;4.20;;
6902;SDS011;20232;49.408;8.702;2023-02-05T06:16:13;6.17;;;3.90;;
6902;SDS011;20232;49.408;8.702;2023-02-05T06:18:39;5.93;;;4.37;;
6902;SDS011;20232;49.408;8.702;2023-02-05T06:21:04;6.67;;;4.33;;
6902;SDS011;20232;49.408;8.702;2023-02-05T06:23:31;5.40;;;4.17;;
6902;SDS011;20232;49.408;8.702;2023-02-05T06:25:57;6.77;;;4.40;;
6902;SDS011;20232;49.408;8.702;2023-02-05T06:28:23;5.60;;;3.90;;
6902;SDS011;20232;49.408;8.702;2023-02-05T06:30:48;5.13;;;3.83;;
6902;SDS011;20232;49.408;8.702;2023-02-05T06:33:14;5.63;;;4.50;;
6902;SDS011;20232;49.408;8.702;2023-02-05T06:35:40;5.23;;;4.13;;
6902;SDS011;20232;49.408;8.702;2023-02-05T06:38:06;6.23;;;4.00;;
6902;SDS011;20232;49.408;8.702;2023-02-05T06:40:31;5.73;;;4.27;;
6902;SDS011;20232;49.408;8.702;2023-02-05T06:42:57;6.07;;;4.30;;
6902;SDS011;20232;49.408;8.702;2023-02-05T06:45:22;4.43;;;4.00;;
6902;SDS011;20232;49.408;8.702;2023-02-05T06:47:48;5.47;;;4.33;;
6902;SDS011;20232;49.408;8.702;2023-02-05T06:50:17;6.80;;;3.97;;
6902;SDS011;20232;49.408;8.702;2023-02-05T06:52:43;7.20;;;4.23;;
6902;SDS011;20232;49.408;8.702;2023-02-05T06:55:09;6.07;;;4.20;;
6902;SDS011;20232;49.408;8.702;2023-02-05T06:57:35;4.77;;;4.00;;
6902;SDS011;20232;49.408;8.702;2023-02-05T07:00:00;5.13;;;4.43;;
6902;SDS011;20232;49.408;8.702;2023-02-05T07:02:26;4.43;;;4.03;;
6902;SDS011;20232;49.408;8.702;2023-02-05T07:04:51;6.77;;;4.87;;
6902;SDS011;20232;49.408;8.702;2023-02-05T07:07:17;5.43;;;4.20;;
6902;SDS011;20232;49.408;8.702;2023-02-05T07:09:43;5.10;;;4.10;;
6902;SDS011;20232;49.408;8.702;2023-02-05T07:12:08;5.10;;;4.23;;
6902;SDS011;20232;49.408;8.702;2023-02-05T07:14:37;5.00;;;3.93;;
6902;SDS011;20232;49.408;8.702;2023-02-05T07:17:04;9.60;;;4.70;;
6902;SDS011;20232;49.408;8.702;2023-02-05T07:19:32;4.30;;;3.90;;
6902;SDS011;20232;49.408;8.702;2023-02-05T07:21:59;6.90;;;4.77;;
6902;SDS011;20232;49.408;8.702;2023-02-05T07:24:24;7.23;;;4.67;;
6902;SDS011;20232;49.408;8.702;2023-02-05T07:26:50;5.43;;;4.40;;
6902;SDS011;20232;49.408;8.702;2023-02-05T07:29:15;5.87;;;4.90;;
6902;SDS011;20232;49.408;8.702;2023-02-05T07:31:41;7.43;;;5.03;;
6902;SDS011;20232;49.408;8.702;2023-02-05T07:34:06;6.10;;;4.83;;
6902;SDS011;20232;49.408;8.702;2023-02-05T07:36:32;5.47;;;4.93;;
6902;SDS011;20232;49.408;8.702;2023-02-05T07:38:58;8.43;;;5.20;;
6902;SDS011;20232;49.408;8.702;2023-02-05T07:41:23;7.67;;;4.70;;
6902;SDS011;20232;49.408;8.702;2023-02-05T07:43:50;5.67;;;4.77;;
6902;SDS011;20232;49.408;8.702;2023-02-05T07:46:17;6.87;;;4.93;;
6902;SDS011;20232;49.408;8.702;2023-02-05T07:48:44;6.43;;;5.03;;
6902;SDS011;20232;49.408;8.702;2023-02-05T07:51:14;7.37;;;5.30;;
6902;SDS011;20232;49.408;8.702;2023-02-05T07:53:42;6.47;;;5.43;;
6902;SDS011;20232;49.408;8.702;2023-02-05T07:56:07;7.70;;;5.50;;
6902;SDS011;20232;49.408;8.702;2023-02-05T07:58:33;6.77;;;5.30;;
6902;SDS011;20232;49.408;8.702;2023-02-05T08:00:59;8.97;;;5.73;;
6902;SDS011;20232;49.408;8.702;2023-02-05T08:03:26;8.50;;;6.23;;
6902;SDS011;20232;49.408;8.702;2023-02-05T08:05:52;7.13;;;5.60;;
6902;SDS011;20232;49.408;8.702;2023-02-05T08:08:17;8.53;;;5.73;;
6902;SDS011;20232;49.408;8.702;2023-02-05T08:10:43;9.63;;;5.90;;
6902;SDS011;20232;49.408;8.702;2023-02-05T08:13:08;10.43;;;5.87;;
6902;SDS011;20232;49.408;8.702;2023-02-05T08:15:36;8.27;;;5.53;;
6902;SDS011;20232;49.408;8.702;2023-02-05T08:18:02;9.17;;;5.63;;
6902;SDS011;20232;49.408;8.702;2023-02-05T08:20:28;7.10;;;5.60;;
6902;SDS011;20232;49.408;8.702;2023-02-05T08:22:54;7.43;;;6.10;;
6902;SDS011;20232;49.408;8.702;2023-02-05T08:25:19;7.23;;;5.40;;
6902;SDS011;20232;49.408;8.702;2023-02-05T08:27:45;10.00;;;5.67;;
6902;SDS011;20232;49.408;8.702;2023-02-05T08:30:12;7.03;;;5.77;;
6902;SDS011;20232;49.408;8.702;2023-02-05T08:32:40;6.13;;;5.33;;
6902;SDS011;20232;49.408;8.702;2023-02-05T08:35:06;6.40;;;5.70;;
6902;SDS011;20232;49.408;8.702;2023-02-05T08:37:31;7.30;;;6.50;;
6902;SDS011;20232;49.408;8.702;2023-02-05T08:39:57;9.37;;;6.43;;
6902;SDS011;20232;49.408;8.702;2023-02-05T08:42:22;7.67;;;6.50;;
6902;SDS011;20232;49.408;8.702;2023-02-05T08:44:49;7.90;;;6.57;;
6902;SDS011;20232;49.408;8.702;2023-02-05T08:47:17;10.37;;;6.70;;
6902;SDS011;20232;49.408;8.702;2023-02-05T08:49:44;9.73;;;6.97;;
6902;SDS011;20232;49.408;8.702;2023-02-05T08:52:09;7.37;;;6.40;;
6902;SDS011;20232;49.408;8.702;2023-02-05T08:54:35;9.37;;;7.20;;
6902;SDS011;20232;49.408;8.702;2023-02-05T08:57:00;8.00;;;7.27;;
6902;SDS011;20232;49.408;8.702;2023-02-05T08:59:26;9.33;;;7.60;;
6902;SDS011;20232;49.408;8.702;2023-02-05T09:01:51;10.63;;;7.67;;
6902;SDS011;20232;49.408;8.702;2023-02-05T09:04:18;12.37;;;7.97;;
6902;SDS011;20232;49.408;8.702;2023-02-05T09:06:45;11.20;;;7.77;;
6902;SDS011;20232;49.408;8.702;2023-02-05T09:09:11;9.87;;;7.63;;
6902;SDS011;20232;49.408;8.702;2023-02-05T09:11:37;9.90;;;8.00;;
6902;SDS011;20232;49.408;8.702;2023-02-05T09:14:02;8.57;;;7.67;;
6902;SDS011;20232;49.408;8.702;2023-02-05T09:16:28;10.33;;;7.60;;
6902;SDS011;20232;49.408;8.702;2023-02-05T09:18:54;9.83;;;8.17;;
6902;SDS011;20232;49.408;8.702;2023-02-05T09:21:21;12.03;;;8.27;;
6902;SDS011;20232;49.408;8.702;2023-02-05T09:23:47;11.20;;;8.67;;
6902;SDS011;20232;49.408;8.702;2023-02-05T09:26:13;12.70;;;9.80;;
6902;SDS011;20232;49.408;8.702;2023-02-05T09:28:39;12.47;;;9.93;;
6902;SDS011;20232;49.408;8.702;2023-02-05T09:31:05;12.67;;;9.37;;
6902;SDS011;20232;49.408;8.702;2023-02-05T09:33:32;11.20;;;8.90;;
6902;SDS011;20232;49.408;8.702;2023-02-05T09:36:03;11.17;;;8.67;;
6902;SDS011;20232;49.408;8.702;2023-02-05T09:38:30;10.47;;;8.77;;
6902;SDS011;20232;49.408;8.702;2023-02-05T09:41:00;11.27;;;9.03;;
6902;SDS011;20232;49.408;8.702;2023-02-05T09:43:44;12.07;;;9.33;;
6902;SDS011;20232;49.408;8.702;2023-02-05T09:49:17;11.20;;;8.40;;
6902;SDS011;20232;49.408;8.702;2023-02-05T09:52:02;9.93;;;8.10;;
6902;SDS011;20232;49.408;8.702;2023-02-05T09:54:35;11.27;;;9.00;;
6902;SDS011;20232;49.408;8.702;2023-02-05T09:57:07;11.43;;;8.90;;
6902;SDS011;20232;49.408;8.702;2023-02-05T09:59:36;14.50;;;10.20;;
6902;SDS011;20232;49.408;8.702;2023-02-05T10:02:17;14.80;;;10.67;;
6902;SDS011;20232;49.408;8.702;2023-02-05T10:04:51;13.67;;;9.80;;
6902;SDS011;20232;49.408;8.702;2023-02-05T10:20:52;22.50;;;16.77;;
6902;SDS011;20232;49.408;8.702;2023-02-05T10:23:45;23.53;;;18.07;;
6902;SDS011;20232;49.408;8.702;2023-02-05T10:26:16;25.17;;;19.40;;
6902;SDS011;20232;49.408;8.702;2023-02-05T10:28:57;12.13;;;9.57;;
6902;SDS011;20232;49.408;8.702;2023-02-05T10:31:42;13.67;;;10.80;;
6902;SDS011;20232;49.408;8.702;2023-02-05T10:36:39;18.97;;;16.03;;
6902;SDS011;20232;49.408;8.702;2023-02-05T10:39:11;22.23;;;16.03;;
6902;SDS011;20232;49.408;8.702;2023-02-05T10:41:47;21.43;;;16.00;;
6902;SDS011;20232;49.408;8.702;2023-02-05T10:44:25;21.67;;;16.30;;
6902;SDS011;20232;49.408;8.702;2023-02-05T10:47:05;23.10;;;16.20;;
6902;SDS011;20232;49.408;8.702;2023-02-05T10:52:18;21.37;;;16.40;;
6902;SDS011;20232;49.408;8.702;2023-02-05T10:54:44;24.43;;;17.07;;
6902;SDS011;20232;49.408;8.702;2023-02-05T10:57:14;27.43;;;17.73;;
6902;SDS011;20232;49.408;8.702;2023-02-05T11:00:05;21.87;;;16.13;;
6902;SDS011;20232;49.408;8.702;2023-02-05T11:02:45;21.00;;;16.83;;
6902;SDS011;20232;49.408;8.702;2023-02-05T11:05:21;23.73;;;17.13;;
6902;SDS011;20232;49.408;8.702;2023-02-05T11:07:54;25.60;;;17.00;;
6902;SDS011;20232;49.408;8.702;2023-02-05T11:10:21;21.23;;;18.07;;
6902;SDS011;20232;49.408;8.702;2023-02-05T11:12:54;24.53;;;18.13;;
6902;SDS011;20232;49.408;8.702;2023-02-05T11:15:26;20.47;;;16.87;;
6902;SDS011;20232;49.408;8.702;2023-02-05T11:18:03;21.53;;;17.83;;
6902;SDS011;20232;49.408;8.702;2023-02-05T11:20:31;23.53;;;19.47;;
6902;SDS011;20232;49.408;8.702;2023-02-05T11:23:06;23.90;;;18.67;;
6902;SDS011;20232;49.408;8.702;2023-02-05T11:25:38;22.57;;;18.53;;
6902;SDS011;20232;49.408;8.702;2023-02-05T11:28:27;22.30;;;18.70;;
6902;SDS011;20232;49.408;8.702;2023-02-05T11:30:54;21.00;;;18.10;;
6902;SDS011;20232;49.408;8.702;2023-02-05T11:35:50;26.73;;;19.67;;
6902;SDS011;20232;49.408;8.702;2023-02-05T11:38:40;23.47;;;19.70;;
6902;SDS011;20232;49.408;8.702;2023-02-05T11:41:27;21.30;;;17.60;;
6902;SDS011;20232;49.408;8.702;2023-02-05T11:43:56;26.20;;;20.07;;
6902;SDS011;20232;49.408;8.702;2023-02-05T11:46:24;23.83;;;19.83;;
6902;SDS011;20232;49.408;8.702;2023-02-05T11:48:59;23.03;;;19.53;;
6902;SDS011;20232;49.408;8.702;2023-02-05T11:51:40;20.83;;;18.63;;
6902;SDS011;20232;49.408;8.702;2023-02-05T11:54:30;20.47;;;18.37;;
6902;SDS011;20232;49.408;8.702;2023-02-05T11:59:55;23.53;;;18.83;;
6902;SDS011;20232;49.408;8.702;2023-02-05T12:02:25;24.27;;;20.53;;
6902;SDS011;20232;49.408;8.702;2023-02-05T12:05:41;25.77;;;20.53;;
6902;SDS011;20232;49.408;8.702;2023-02-05T12:07:56;26.37;;;19.87;;
6902;SDS011;20232;49.408;8.702;2023-02-05T12:16:07;19.53;;;16.10;;
6902;SDS011;20232;49.408;8.702;2023-02-05T12:21:24;24.73;;;20.17;;
6902;SDS011;20232;49.408;8.702;2023-02-05T12:32:37;27.33;;;22.83;;
6902;SDS011;20232;49.408;8.702;2023-02-05T12:38:29;22.93;;;18.73;;
6902;SDS011;20232;49.408;8.702;2023-02-05T12:43:39;20.93;;;17.13;;
6902;SDS011;20232;49.408;8.702;2023-02-05T12:46:23;19.93;;;17.03;;
6902;SDS011;20232;49.408;8.702;2023-02-05T12:48:59;17.80;;;15.90;;
6902;SDS011;20232;49.408;8.702;2023-02-05T12:54:23;20.03;;;16.37;;
6902;SDS011;20232;49.408;8.702;2023-02-05T12:57:07;16.07;;;12.90;;
6902;SDS011;20232;49.408;8.702;2023-02-05T12:59:41;14.17;;;11.93;;
6902;SDS011;20232;49.408;8.702;2023-02-05T13:02:31;14.87;;;12.63;;
6902;SDS011;20232;49.408;8.702;2023-02-05T13:07:46;14.07;;;12.67;;
6902;SDS011;20232;49.408;8.702;2023-02-05T13:10:21;13.97;;;10.90;;
6902;SDS011;20232;49.408;8.702;2023-02-05T13:12:51;14.80;;;10.83;;
6902;SDS011;20232;49.408;8.702;2023-02-05T13:15:23;15.20;;;11.70;;
6902;SDS011;20232;49.408;8.702;2023-02-05T13:21:32;15.03;;;13.17;;
6902;SDS011;20232;49.408;8.702;2023-02-05T13:24:28;18.60;;;15.73;;
6902;SDS011;20232;49.408;8.702;2023-02-05T13:27:18;20.00;;;17.90;;
6902;SDS011;20232;49.408;8.702;2023-02-05T13:30:05;23.77;;;20.83;;
6902;SDS011;20232;49.408;8.702;2023-02-05T13:32:38;26.27;;;21.43;;
6902;SDS011;20232;49.408;8.702;2023-02-05T13:35:07;26.80;;;21.47;;
6902;SDS011;20232;49.408;8.702;2023-02-05T13:40:16;21.87;;;19.50;;
6902;SDS011;20232;49.408;8.702;2023-02-05T13:42:47;22.20;;;19.80;;
6902;SDS011;20232;49.408;8.702;2023-02-05T13:48:48;20.57;;;18.17;;
6902;SDS011;20232;49.408;8.702;2023-02-05T13:52:09;22.07;;;18.60;;
6902;SDS011;20232;49.408;8.702;2023-02-05T13:57:06;19.03;;;15.77;;
6902;SDS011;20232;49.408;8.702;2023-02-05T13:59:50;16.67;;;14.97;;
6902;SDS011;20232;49.408;8.702;2023-02-05T14:05:05;18.87;;;15.50;;
6902;SDS011;20232;49.408;8.702;2023-02-05T14:07:33;17.20;;;15.17;;
6902;SDS011;20232;49.408;8.702;2023-02-05T14:10:02;15.27;;;13.67;;
6902;SDS011;20232;49.408;8.702;2023-02-05T14:12:33;16.57;;;14.03;;
6902;SDS011;20232;49.408;8.702;2023-02-05T14:28:00;11.87;;;10.60;;
6902;SDS011;20232;49.408;8.702;2023-02-05T14:32:59;12.87;;;11.03;;
6902;SDS011;20232;49.408;8.702;2023-02-05T14:35:27;12.77;;;10.07;;
6902;SDS011;20232;49.408;8.702;2023-02-05T14:38:02;8.77;;;7.70;;
6902;SDS011;20232;49.408;8.702;2023-02-05T14:40:44;7.37;;;6.57;;
6902;SDS011;20232;49.408;8.702;2023-02-05T14:43:37;9.70;;;6.83;;
6902;SDS011;20232;49.408;8.702;2023-02-05T14:49:04;7.50;;;6.80;;
6902;SDS011;20232;49.408;8.702;2023-02-05T14:51:48;6.80;;;6.20;;
6902;SDS011;20232;49.408;8.702;2023-02-05T14:54:23;6.43;;;5.83;;
6902;SDS011;20232;49.408;8.702;2023-02-05T14:57:09;6.80;;;6.20;;
6902;SDS011;20232;49.408;8.702;2023-02-05T14:59:39;9.63;;;7.67;;
6902;SDS011;20232;49.408;8.702;2023-02-05T15:05:37;7.03;;;6.43;;
6902;SDS011;20232;49.408;8.702;2023-02-05T15:08:20;7.70;;;7.00;;
6902;SDS011;20232;49.408;8.702;2023-02-05T15:16:42;8.10;;;7.30;;
6902;SDS011;20232;49.408;8.702;2023-02-05T15:19:08;8.17;;;7.43;;
6902;SDS011;20232;49.408;8.702;2023-02-05T15:21:38;10.43;;;9.20;;
6902;SDS011;20232;49.408;8.702;2023-02-05T15:24:14;10.70;;;9.07;;
6902;SDS011;20232;49.408;8.702;2023-02-05T15:26:54;9.27;;;8.40;;
6902;SDS011;20232;49.408;8.702;2023-02-05T15:29:22;11.33;;;10.17;;
6902;SDS011;20232;49.408;8.702;2023-02-05T15:31:56;11.43;;;9.47;;
6902;SDS011;20232;49.408;8.702;2023-02-05T15:34:26;9.63;;;8.73;;
6902;SDS011;20232;49.408;8.702;2023-02-05T15:37:56;10.43;;;8.83;;
6902;SDS011;20232;49.408;8.702;2023-02-05T15:40:12;10.37;;;9.37;;
6902;SDS011;20232;49.408;8.702;2023-02-05T15:42:44;10.40;;;9.40;;
6902;SDS011;20232;49.408;8.702;2023-02-05T15:45:28;12.33;;;11.23;;
6902;SDS011;20232;49.408;8.702;2023-02-05T15:50:33;11.30;;;10.10;;
6902;SDS011;20232;49.408;8.702;2023-02-05T15:53:39;10.57;;;9.50;;
6902;SDS011;20232;49.408;8.702;2023-02-05T15:56:14;10.13;;;9.10;;
6902;SDS011;20232;49.408;8.702;2023-02-05T15:58:47;9.47;;;8.57;;
6902;SDS011;20232;49.408;8.702;2023-02-05T16:01:21;9.83;;;8.83;;
6902;SDS011;20232;49.408;8.702;2023-02-05T16:03:50;11.40;;;9.73;;
6902;SDS011;20232;49.408;8.702;2023-02-05T16:06:19;10.37;;;9.20;;
6902;SDS011;20232;49.408;8.702;2023-02-05T16:08:46;10.13;;;9.10;;
6902;SDS011;20232;49.408;8.702;2023-02-05T16:11:24;10.50;;;9.47;;
6902;SDS011;20232;49.408;8.702;2023-02-05T16:14:09;9.87;;;8.97;;
6902;SDS011;20232;49.408;8.702;2023-02-05T16:19:28;9.17;;;8.37;;
6902;SDS011;20232;49.408;8.702;2023-02-05T16:22:03;7.73;;;6.93;;
6902;SDS011;20232;49.408;8.702;2023-02-05T16:24:56;7.10;;;6.50;;
6902;SDS011;20232;49.408;8.702;2023-02-05T16:27:30;6.23;;;5.70;;
6902;SDS011;20232;49.408;8.702;2023-02-05T16:30:15;6.97;;;6.37;;
6902;SDS011;20232;49.408;8.702;2023-02-05T16:32:50;7.77;;;7.07;;
6902;SDS011;20232;49.408;8.702;2023-02-05T16:35:26;7.93;;;7.23;;
6902;SDS011;20232;49.408;8.702;2023-02-05T16:37:55;9.43;;;8.53;;
6902;SDS011;20232;49.408;8.702;2023-02-05T16:40:37;7.40;;;6.70;;
6902;SDS011;20232;49.408;8.702;2023-02-05T16:43:16;7.03;;;6.43;;
6902;SDS011;20232;49.408;8.702;2023-02-05T16:45:49;9.00;;;8.17;;
6902;SDS011;20232;49.408;8.702;2023-02-05T16:48:31;8.77;;;7.83;;
6902;SDS011;20232;49.408;8.702;2023-02-05T16:50:58;9.10;;;8.20;;
6902;SDS011;20232;49.408;8.702;2023-02-05T16:53:26;9.67;;;8.67;;
6902;SDS011;20232;49.408;8.702;2023-02-05T16:56:12;9.23;;;8.33;;
6902;SDS011;20232;49.408;8.702;2023-02-05T16:58:55;12.27;;;9.03;;
6902;SDS011;20232;49.408;8.702;2023-02-05T17:01:24;10.50;;;9.50;;
6902;SDS011;20232;49.408;8.702;2023-02-05T17:03:52;11.13;;;10.13;;
6902;SDS011;20232;49.408;8.702;2023-02-05T17:06:19;11.03;;;9.90;;
6902;SDS011;20232;49.408;8.702;2023-02-05T17:08:49;11.73;;;10.20;;
6902;SDS011;20232;49.408;8.702;2023-02-05T17:14:29;11.23;;;10.13;;
6902;SDS011;20232;49.408;8.702;2023-02-05T17:16:57;10.93;;;9.83;;
6902;SDS011;20232;49.408;8.702;2023-02-05T17:19:29;9.13;;;8.23;;
6902;SDS011;20232;49.408;8.702;2023-02-05T17:24:43;7.53;;;6.83;;
6902;SDS011;20232;49.408;8.702;2023-02-05T17:27:14;7.03;;;6.43;;
6902;SDS011;20232;49.408;8.702;2023-02-05T17:29:42;6.60;;;5.70;;
6902;SDS011;20232;49.408;8.702;2023-02-05T17:32:13;6.33;;;5.80;;
6902;SDS011;20232;49.408;8.702;2023-02-05T17:34:41;5.47;;;5.07;;
6902;SDS011;20232;49.408;8.702;2023-02-05T17:37:08;5.67;;;5.20;;
6902;SDS011;20232;49.408;8.702;2023-02-05T17:39:33;5.90;;;5.50;;
6902;SDS011;20232;49.408;8.702;2023-02-05T17:41:59;7.30;;;6.70;;
6902;SDS011;20232;49.408;8.702;2023-02-05T17:44:27;5.20;;;4.80;;
6902;SDS011;20232;49.408;8.702;2023-02-05T17:46:53;5.70;;;5.20;;
6902;SDS011;20232;49.408;8.702;2023-02-05T17:49:19;5.50;;;5.00;;
6902;SDS011;20232;49.408;8.702;2023-02-05T17:51:44;5.83;;;5.37;;
6902;SDS011;20232;49.408;8.702;2023-02-05T17:54:13;4.97;;;4.57;;
6902;SDS011;20232;49.408;8.702;2023-02-05T17:56:41;7.00;;;5.17;;
6902;SDS011;20232;49.408;8.702;2023-02-05T17:59:11;6.03;;;5.53;;
6902;SDS011;20232;49.408;8.702;2023-02-05T18:01:39;5.87;;;5.37;;
6902;SDS011;20232;49.408;8.702;2023-02-05T18:04:05;5.50;;;5.10;;
6902;SDS011;20232;49.408;8.702;2023-02-05T18:06:31;5.40;;;5.00;;
6902;SDS011;20232;49.408;8.702;2023-02-05T18:08:57;5.57;;;5.13;;
6902;SDS011;20232;49.408;8.702;2023-02-05T18:11:23;5.40;;;5.00;;
6902;SDS011;20232;49.408;8.702;2023-02-05T18:13:48;6.17;;;5.67;;
6902;SDS011;20232;49.408;8.702;2023-02-05T18:16:14;6.40;;;5.90;;
6902;SDS011;20232;49.408;8.702;2023-02-05T18:18:40;6.50;;;6.00;;
6902;SDS011;20232;49.408;8.702;2023-02-05T18:21:06;6.57;;;5.87;;
6902;SDS011;20232;49.408;8.702;2023-02-05T18:23:31;6.47;;;5.97;;
6902;SDS011;20232;49.408;8.702;2023-02-05T18:25:57;6.87;;;6.27;;
6902;SDS011;20232;49.408;8.702;2023-02-05T18:28:23;6.40;;;5.90;;
6902;SDS011;20232;49.408;8.702;2023-02-05T18:31:02;6.63;;;6.13;;
6902;SDS011;20232;49.408;8.702;2023-02-05T18:33:29;6.57;;;6.00;;
6902;SDS011;20232;49.408;8.702;2023-02-05T18:36:02;7.00;;;6.30;;
6902;SDS011;20232;49.408;8.702;2023-02-05T18:38:31;7.27;;;6.70;;
6902;SDS011;20232;49.408;8.702;2023-02-05T18:41:14;7.40;;;6.80;;
6902;SDS011;20232;49.408;8.702;2023-02-05T18:43:42;6.97;;;6.30;;
6902;SDS011;20232;49.408;8.702;2023-02-05T18:46:09;7.67;;;7.07;;
6902;SDS011;20232;49.408;8.702;2023-02-05T18:48:39;7.60;;;7.00;;
6902;SDS011;20232;49.408;8.702;2023-02-05T18:51:06;8.97;;;8.17;;
6902;SDS011;20232;49.408;8.702;2023-02-05T18:53:33;8.47;;;7.73;;
6902;SDS011;20232;49.408;8.702;2023-02-05T18:56:01;10.30;;;9.30;;
6902;SDS011;20232;49.408;8.702;2023-02-05T18:58:27;10.90;;;9.90;;
6902;SDS011;20232;49.408;8.702;2023-02-05T19:00:53;10.90;;;10.00;;
6902;SDS011;20232;49.408;8.702;2023-02-05T19:03:18;10.40;;;9.50;;
6902;SDS011;20232;49.408;8.702;2023-02-05T19:05:44;10.40;;;9.50;;
6902;SDS011;20232;49.408;8.702;2023-02-05T19:08:10;9.30;;;8.60;;
6902;SDS011;20232;49.408;8.702;2023-02-05T19:10:35;11.50;;;10.40;;
6902;SDS011;20232;49.408;8.702;2023-02-05T19:13:01;10.27;;;9.33;;
6902;SDS011;20232;49.408;8.702;2023-02-05T19:15:27;10.30;;;9.40;;
6902;SDS011;20232;49.408;8.702;2023-02-05T19:17:53;10.00;;;9.20;;
6902;SDS011;20232;49.408;8.702;2023-02-05T19:20:19;9.70;;;8.80;;
6902;SDS011;20232;49.408;8.702;2023-02-05T19:22:44;9.97;;;9.17;;
6902;SDS011;20232;49.408;8.702;2023-02-05T19:25:10;10.00;;;9.20;;
6902;SDS011;20232;49.408;8.702;2023-02-05T19:27:36;10.30;;;9.40;;
6902;SDS011;20232;49.408;8.702;2023-02-05T19:30:02;9.53;;;8.73;;
6902;SDS011;20232;49.408;8.702;2023-02-05T19:32:29;10.33;;;9.40;;
6902;SDS011;20232;49.408;8.702;2023-02-05T19:34:55;10.93;;;9.97;;
6902;SDS011;20232;49.408;8.702;2023-02-05T19:37:21;12.43;;;11.33;;
6902;SDS011;20232;49.408;8.702;2023-02-05T19:39:46;11.13;;;10.13;;
6902;SDS011;20232;49.408;8.702;2023-02-05T19:42:12;11.60;;;10.60;;
6902;SDS011;20232;49.408;8.702;2023-02-05T19:44:37;14.17;;;12.87;;
6902;SDS011;20232;49.408;8.702;2023-02-05T19:47:03;15.93;;;14.37;;
6902;SDS011;20232;49.408;8.702;2023-02-05T19:49:29;14.20;;;12.80;;
6902;SDS011;20232;49.408;8.702;2023-02-05T19:51:54;13.63;;;12.33;;
6902;SDS011;20232;49.408;8.702;2023-02-05T19:54:23;11.40;;;10.40;;
6902;SDS011;20232;49.408;8.702;2023-02-05T19:56:48;11.17;;;10.17;;
6902;SDS011;20232;49.408;8.702;2023-02-05T19:59:14;10.87;;;9.77;;
6902;SDS011;20232;49.408;8.702;2023-02-05T20:01:40;10.60;;;9.60;;
6902;SDS011;20232;49.408;8.702;2023-02-05T20:04:12;9.20;;;8.50;;
6902;SDS011;20232;49.408;8.702;2023-02-05T20:06:40;6.53;;;5.93;;
6902;SDS011;20232;49.408;8.702;2023-02-05T20:09:07;6.10;;;5.60;;
6902;SDS011;20232;49.408;8.702;2023-02-05T20:11:37;5.00;;;4.60;;
6902;SDS011;20232;49.408;8.702;2023-02-05T20:14:04;3.97;;;3.77;;
6902;SDS011;20232;49.408;8.702;2023-02-05T20:16:31;4.30;;;4.00;;
6902;SDS011;20232;49.408;8.702;2023-02-05T20:18:57;3.93;;;3.73;;
6902;SDS011;20232;49.408;8.702;2023-02-05T20:21:24;4.53;;;4.23;;
6902;SDS011;20232;49.408;8.702;2023-02-05T20:23:51;4.23;;;3.93;;
6902;SDS011;20232;49.408;8.702;2023-02-05T20:26:17;4.67;;;4.27;;
6902;SDS011;20232;49.408;8.702;2023-02-05T20:28:46;4.43;;;4.13;;
6902;SDS011;20232;49.408;8.702;2023-02-05T20:31:33;5.20;;;4.80;;
6902;SDS011;20232;49.408;8.702;2023-02-05T20:34:05;5.23;;;4.83;;
6902;SDS011;20232;49.408;8.702;2023-02-05T20:36:33;6.00;;;5.50;;
6902;SDS011;20232;49.408;8.702;2023-02-05T20:38:59;5.07;;;4.67;;
6902;SDS011;20232;49.408;8.702;2023-02-05T20:41:27;5.63;;;5.23;;
6902;SDS011;20232;49.408;8.702;2023-02-05T20:43:53;5.53;;;5.13;;
6902;SDS011;20232;49.408;8.702;2023-02-05T20:46:20;7.00;;;6.40;;
6902;SDS011;20232;49.408;8.702;2023-02-05T20:48:46;7.77;;;7.10;;
6902;SDS011;20232;49.408;8.702;2023-02-05T20:51:13;7.43;;;6.83;;
6902;SDS011;20232;49.408;8.702;2023-02-05T20:53:42;6.83;;;6.33;;
6902;SDS011;20232;49.408;8.702;2023-02-05T20:56:12;7.33;;;6.73;;
6902;SDS011;20232;49.408;8.702;2023-02-05T20:58:39;7.23;;;6.67;;
6902;SDS011;20232;49.408;8.702;2023-02-05T21:01:12;7.47;;;6.87;;
6902;SDS011;20232;49.408;8.702;2023-02-05T21:03:44;7.03;;;6.53;;
6902;SDS011;20232;49.408;8.702;2023-02-05T21:06:11;7.53;;;6.93;;
6902;SDS011;20232;49.408;8.702;2023-02-05T21:08:38;7.30;;;6.70;;
6902;SDS011;20232;49.408;8.702;2023-02-05T21:11:05;8.30;;;7.60;;
6902;SDS011;20232;49.408;8.702;2023-02-05T21:13:32;7.90;;;7.20;;
6902;SDS011;20232;49.408;8.702;2023-02-05T21:15:58;7.07;;;6.57;;
6902;SDS011;20232;49.408;8.702;2023-02-05T21:18:26;7.50;;;6.90;;
6902;SDS011;20232;49.408;8.702;2023-02-05T21:20:52;6.80;;;6.30;;
6902;SDS011;20232;49.408;8.702;2023-02-05T21:23:18;7.20;;;6.60;;
6902;SDS011;20232;49.408;8.702;2023-02-05T21:25:45;7.33;;;6.80;;
6902;SDS011;20232;49.408;8.702;2023-02-05T21:28:11;7.80;;;7.20;;
6902;SDS011;20232;49.408;8.702;2023-02-05T21:30:37;7.93;;;7.33;;
6902;SDS011;20232;49.408;8.702;2023-02-05T21:33:03;7.87;;;7.17;;
6902;SDS011;20232;49.408;8.702;2023-02-05T21:35:29;6.93;;;6.43;;
6902;SDS011;20232;49.408;8.702;2023-02-05T21:37:55;7.80;;;7.20;;
6902;SDS011;20232;49.408;8.702;2023-02-05T21:40:20;7.87;;;7.17;;
6902;SDS011;20232;49.408;8.702;2023-02-05T21:42:46;7.50;;;6.90;;
6902;SDS011;20232;49.408;8.702;2023-02-05T21:45:12;7.77;;;7.07;;
6902;SDS011;20232;49.408;8.702;2023-02-05T21:47:37;7.90;;;7.20;;
6902;SDS011;20232;49.408;8.702;2023-02-05T21:50:03;7.90;;;7.30;;
6902;SDS011;20232;49.408;8.702;2023-02-05T21:52:29;8.20;;;7.50;;
6902;SDS011;20232;49.408;8.702;2023-02-05T21:54:55;8.23;;;7.53;;
6902;SDS011;20232;49.408;8.702;2023-02-05T21:57:20;9.27;;;8.47;;
6902;SDS011;20232;49.408;8.702;2023-02-05T21:59:52;8.53;;;7.73;;